Time;durP1;ratioP1;P1;durP2;ratioP2;P2;SDS_P1;SDS_P2;PMS_P1;PMS_P2;Temp;Humidity;BMP_temperature;BMP_pressure;BME280_temperature;BME280_humidity;BME280_pressure;Samples;Min_cycle;Max_cycle;Signal;HPM_P1;HPM_P2
2023/11/14 00:01:36;;;;;;;5.90;2.27;;;;;;;13.41;100.00;97423.75;4159419;28;20626;-86
2023/11/14 00:03:40;;;;;;;5.57;2.00;;;;;;;13.40;100.00;97428.16;4157018;28;20634;-85
2023/11/14 00:05:46;;;;;;;10.93;2.07;;;;;;;13.43;100.00;97440.19;4173493;28;20628;-85
2023/11/14 00:07:51;;;;;;;8.10;2.57;;;;;;;13.45;100.00;97441.69;4179124;28;20617;-85
2023/11/14 00:09:57;;;;;;;12.17;2.00;;;;;;;13.46;100.00;97442.53;4155280;28;20630;-85
2023/11/14 00:12:00;;;;;;;7.30;2.40;;;;;;;13.37;100.00;97440.72;4175953;28;21212;-85
2023/11/14 00:14:04;;;;;;;4.10;1.50;;;;;;;13.38;100.00;97442.38;4171276;28;20668;-86
2023/11/14 00:16:08;;;;;;;11.07;2.13;;;;;;;13.37;100.00;97443.34;4156749;28;20630;-85
2023/11/14 00:18:14;;;;;;;8.23;1.90;;;;;;;13.39;100.00;97438.78;4174299;28;20687;-85
2023/11/14 00:20:18;;;;;;;15.33;4.37;;;;;;;13.41;100.00;97445.56;4162957;28;20649;-86
2023/11/14 00:22:21;;;;;;;10.13;2.37;;;;;;;13.44;100.00;97452.28;4174080;28;20621;-86
2023/11/14 00:24:24;;;;;;;12.03;2.37;;;;;;;13.45;100.00;97452.16;4173355;28;20628;-85
2023/11/14 00:26:28;;;;;;;5.73;1.83;;;;;;;13.47;100.00;97450.25;4173390;28;21037;-86
2023/11/14 00:28:32;;;;;;;11.33;2.63;;;;;;;13.47;100.00;97447.63;4156222;28;21228;-85
2023/11/14 00:30:36;;;;;;;6.40;1.80;;;;;;;13.46;100.00;97445.16;4172302;28;20656;-86
2023/11/14 00:32:39;;;;;;;8.73;2.10;;;;;;;13.46;100.00;97459.06;4176265;28;21209;-85
2023/11/14 00:34:43;;;;;;;8.47;2.40;;;;;;;13.45;100.00;97459.19;4153752;28;20649;-85
2023/11/14 00:36:46;;;;;;;8.00;2.00;;;;;;;13.43;100.00;97461.94;4174461;28;20659;-85
2023/11/14 00:38:49;;;;;;;4.00;1.60;;;;;;;13.42;100.00;97454.22;4185392;28;20613;-85
2023/11/14 00:40:52;;;;;;;8.83;2.20;;;;;;;13.43;99.96;97474.22;4175894;28;21265;-86
2023/11/14 00:42:58;;;;;;;6.73;2.00;;;;;;;13.41;99.74;97471.75;4161390;28;21002;-85
2023/11/14 00:45:00;;;;;;;6.80;2.40;;;;;;;13.38;100.00;97465.94;4159911;28;20637;-85
2023/11/14 00:47:06;;;;;;;7.60;1.80;;;;;;;13.36;99.13;97468.69;4171509;28;20635;-87
2023/11/14 00:49:10;;;;;;;14.80;2.40;;;;;;;13.28;98.88;97473.78;4175044;28;20628;-85
2023/11/14 00:51:13;;;;;;;6.80;1.77;;;;;;;13.27;98.58;97472.13;4159420;28;20621;-85
2023/11/14 00:53:16;;;;;;;7.13;2.00;;;;;;;13.25;98.60;97468.81;4175252;28;20621;-86
2023/11/14 00:55:23;;;;;;;5.70;1.63;;;;;;;13.24;97.74;97476.81;4160360;28;20635;-86
2023/11/14 00:57:26;;;;;;;6.73;2.37;;;;;;;13.19;97.16;97487.69;4171488;28;20653;-85
2023/11/14 00:59:31;;;;;;;6.07;1.77;;;;;;;13.15;96.25;97482.88;4156889;28;20614;-85
2023/11/14 01:01:34;;;;;;;9.33;2.63;;;;;;;13.13;95.64;97492.66;4169645;28;20631;-86
2023/11/14 01:03:38;;;;;;;5.97;2.17;;;;;;;13.08;95.38;97484.38;4169401;28;20628;-86
2023/11/14 01:05:41;;;;;;;7.37;1.83;;;;;;;13.01;95.06;97493.72;4176819;28;21027;-85
2023/11/14 01:07:44;;;;;;;7.80;1.70;;;;;;;12.91;94.75;97487.63;4169873;28;20670;-87
2023/11/14 01:09:48;;;;;;;7.13;1.80;;;;;;;12.87;93.86;97488.88;4170095;28;20624;-86
2023/11/14 01:11:51;;;;;;;8.10;2.20;;;;;;;12.82;94.77;97492.81;4156191;28;21045;-86
2023/11/14 01:13:55;;;;;;;6.60;1.93;;;;;;;12.81;94.39;97496.41;4169058;28;20626;-86
2023/11/14 01:15:59;;;;;;;8.03;2.00;;;;;;;12.81;93.98;97499.84;4161699;28;20666;-86
2023/11/14 01:18:03;;;;;;;10.10;1.80;;;;;;;12.83;94.24;97497.13;4175316;28;20659;-86
2023/11/14 01:20:08;;;;;;;5.40;1.80;;;;;;;12.82;94.00;97498.94;4173547;28;20682;-86
2023/11/14 01:22:12;;;;;;;7.30;2.00;;;;;;;12.82;93.90;97496.31;4155721;28;21038;-86
2023/11/14 01:24:16;;;;;;;9.63;2.43;;;;;;;12.85;94.01;97503.03;4154753;28;20971;-86
2023/11/14 01:26:19;;;;;;;9.17;2.30;;;;;;;12.85;94.04;97510.91;4170731;28;21174;-86
2023/11/14 01:28:24;;;;;;;12.70;1.97;;;;;;;12.87;94.17;97508.97;4173485;28;20616;-86
2023/11/14 01:30:27;;;;;;;6.97;2.07;;;;;;;12.85;94.73;97503.91;4186707;28;20633;-85
2023/11/14 01:32:32;;;;;;;8.80;2.30;;;;;;;12.83;93.50;97505.78;4161946;28;20648;-85
2023/11/14 01:34:35;;;;;;;7.67;1.77;;;;;;;12.82;94.40;97505.91;4160317;28;20676;-86
2023/11/14 01:36:39;;;;;;;7.33;1.93;;;;;;;12.77;94.25;97500.25;4171002;28;20657;-85
2023/11/14 01:38:43;;;;;;;5.80;2.03;;;;;;;12.68;93.67;97508.06;4158597;28;20662;-86
2023/11/14 01:40:50;;;;;;;9.20;2.60;;;;;;;12.61;94.09;97506.91;4163208;28;20622;-85
2023/11/14 01:42:54;;;;;;;8.43;1.90;;;;;;;12.56;93.31;97520.41;4157224;28;21252;-86
2023/11/14 01:44:57;;;;;;;7.80;2.50;;;;;;;12.47;92.73;97521.16;4188836;28;20622;-86
2023/11/14 01:47:01;;;;;;;11.10;1.80;;;;;;;12.37;93.36;97520.31;4162618;28;20621;-85
2023/11/14 01:49:05;;;;;;;11.27;1.80;;;;;;;12.28;94.56;97512.38;4167181;28;20640;-85
2023/11/14 01:51:08;;;;;;;10.07;2.13;;;;;;;12.22;95.09;97510.28;4168946;28;20639;-86
2023/11/14 01:53:11;;;;;;;10.37;2.33;;;;;;;12.12;95.97;97514.66;4186817;28;20906;-86
2023/11/14 01:55:14;;;;;;;9.70;2.37;;;;;;;12.14;96.22;97517.97;4176504;28;20715;-86
2023/11/14 01:57:17;;;;;;;9.40;2.53;;;;;;;12.15;95.91;97511.78;4168332;28;20633;-86
2023/11/14 01:59:20;;;;;;;6.07;1.67;;;;;;;12.07;95.59;97521.22;4149939;28;20637;-85
2023/11/14 02:01:26;;;;;;;9.63;2.53;;;;;;;12.06;96.40;97525.63;4154262;28;20638;-85
2023/11/14 02:03:28;;;;;;;5.60;2.00;;;;;;;12.11;96.45;97539.13;4171485;28;20661;-85
2023/11/14 02:05:33;;;;;;;7.23;2.27;;;;;;;12.16;96.36;97536.94;4180416;28;20632;-86
2023/11/14 02:07:38;;;;;;;5.23;1.67;;;;;;;12.17;96.34;97522.94;4184956;28;20616;-86
2023/11/14 02:09:40;;;;;;;7.00;1.93;;;;;;;12.19;96.03;97521.00;4156719;28;20617;-85
2023/11/14 02:11:44;;;;;;;7.50;2.77;;;;;;;12.21;96.50;97519.13;4171545;28;21230;-86
2023/11/14 02:13:49;;;;;;;4.90;1.70;;;;;;;12.23;96.52;97519.81;4170386;28;20626;-86
2023/11/14 02:15:52;;;;;;;6.50;2.03;;;;;;;12.27;95.81;97523.81;4172357;28;20648;-86
2023/11/14 02:17:55;;;;;;;9.07;2.03;;;;;;;12.24;96.51;97530.13;4159571;28;21244;-85
2023/11/14 02:19:59;;;;;;;8.43;2.30;;;;;;;12.25;96.42;97525.72;4155011;28;20641;-85
2023/11/14 02:22:07;;;;;;;8.00;1.67;;;;;;;12.23;95.47;97525.84;4158879;28;21390;-86
2023/11/14 02:24:15;;;;;;;8.50;2.07;;;;;;;12.20;95.81;97527.91;4185038;28;20634;-86
2023/11/14 02:26:20;;;;;;;6.23;2.20;;;;;;;12.15;95.72;97521.38;4173620;28;20620;-85
2023/11/14 02:28:23;;;;;;;4.03;1.70;;;;;;;12.09;96.01;97524.50;4154708;28;20676;-85
2023/11/14 02:30:26;;;;;;;10.03;2.87;;;;;;;12.07;97.04;97529.91;4177861;28;20632;-86
2023/11/14 02:32:31;;;;;;;7.63;1.73;;;;;;;12.04;96.63;97535.38;4167428;28;20633;-86
2023/11/14 02:34:35;;;;;;;7.10;1.83;;;;;;;12.03;96.98;97531.09;4160427;28;20665;-85
2023/11/14 02:36:39;;;;;;;10.20;2.07;;;;;;;12.04;97.83;97535.38;4188226;28;20732;-85
2023/11/14 02:38:43;;;;;;;11.00;2.07;;;;;;;12.04;96.75;97521.47;4172527;28;20652;-86
2023/11/14 02:40:47;;;;;;;5.03;2.43;;;;;;;12.07;97.25;97545.59;4160818;28;20622;-86
2023/11/14 02:42:53;;;;;;;6.63;2.40;;;;;;;12.06;96.39;97538.69;4158642;28;21412;-85
2023/11/14 02:44:58;;;;;;;11.53;2.30;;;;;;;12.05;96.18;97549.25;4173802;28;20720;-86
2023/11/14 02:47:04;;;;;;;7.03;1.90;;;;;;;12.03;97.29;97538.94;4172891;28;20735;-85
2023/11/14 02:49:24;;;;;;;5.93;3.87;;;;;;;11.99;97.11;97539.31;4174508;28;20682;-85
2023/11/14 02:51:27;;;;;;;15.90;2.20;;;;;;;11.93;95.97;97535.41;4175481;28;20634;-85
2023/11/14 02:53:30;;;;;;;3.83;1.70;;;;;;;11.92;97.37;97515.47;4160644;28;20630;-85
2023/11/14 02:55:33;;;;;;;7.30;1.50;;;;;;;11.89;97.19;97513.13;4179472;28;20631;-85
2023/11/14 02:57:36;;;;;;;7.07;1.80;;;;;;;11.87;96.61;97532.50;4169730;28;20633;-85
2023/11/14 02:59:40;;;;;;;5.17;1.70;;;;;;;11.84;96.14;97517.88;4173840;28;20645;-85
2023/11/14 03:01:43;;;;;;;7.03;2.20;;;;;;;11.80;96.63;97510.41;4153707;28;20686;-85
2023/11/14 03:03:46;;;;;;;4.57;2.27;;;;;;;11.76;95.68;97506.41;4160785;28;20639;-86
2023/11/14 03:05:50;;;;;;;6.53;2.20;;;;;;;11.72;95.82;97504.19;4158997;28;20618;-85
2023/11/14 03:07:53;;;;;;;6.77;2.00;;;;;;;11.66;96.23;97502.91;4162220;28;20633;-85
2023/11/14 03:09:56;;;;;;;6.40;3.00;;;;;;;11.55;97.09;97509.97;4160522;28;21008;-85
2023/11/14 03:12:00;;;;;;;4.17;1.97;;;;;;;11.49;96.81;97520.91;4154742;28;20691;-84
2023/11/14 03:14:03;;;;;;;6.90;1.97;;;;;;;11.55;96.23;97530.84;4171227;28;21540;-85
2023/11/14 03:16:13;;;;;;;3.20;1.57;;;;;;;11.54;95.53;97529.19;4156372;28;21149;-86
2023/11/14 03:18:16;;;;;;;9.40;2.67;;;;;;;11.49;97.39;97528.75;4158437;28;20673;-84
2023/11/14 03:20:19;;;;;;;5.30;1.80;;;;;;;11.45;97.05;97517.66;4174095;28;20648;-85
2023/11/14 03:22:35;;;;;;;4.60;1.90;;;;;;;11.46;97.75;97527.16;4157306;28;20638;-85
2023/11/14 03:24:39;;;;;;;12.97;2.43;;;;;;;11.47;97.29;97520.19;4186344;28;20634;-85
2023/11/14 03:26:42;;;;;;;7.47;2.23;;;;;;;11.48;97.25;97521.84;4158661;28;20679;-85
2023/11/14 03:28:45;;;;;;;9.50;2.23;;;;;;;11.46;97.75;97523.72;4174327;28;20977;-85
2023/11/14 03:30:49;;;;;;;8.77;2.20;;;;;;;11.45;96.54;97532.50;4173634;28;21244;-85
2023/11/14 03:32:53;;;;;;;5.97;1.90;;;;;;;11.44;97.57;97525.63;4172616;28;20635;-85
2023/11/14 03:34:59;;;;;;;5.90;1.80;;;;;;;11.41;97.81;97537.16;4164073;28;20684;-84
2023/11/14 03:37:03;;;;;;;8.83;2.03;;;;;;;11.40;98.63;97534.66;4159522;28;20637;-85
2023/11/14 03:39:07;;;;;;;5.00;1.93;;;;;;;11.38;98.63;97547.00;4169120;28;20669;-85
2023/11/14 03:41:10;;;;;;;5.10;2.00;;;;;;;11.34;97.75;97551.66;4156636;28;20685;-84
2023/11/14 03:43:14;;;;;;;6.50;1.87;;;;;;;11.33;98.80;97549.16;4160590;28;21069;-85
2023/11/14 03:45:17;;;;;;;5.37;1.80;;;;;;;11.30;98.80;97545.00;4161690;28;20720;-85
2023/11/14 03:47:20;;;;;;;8.23;2.00;;;;;;;11.28;98.39;97559.16;4167729;28;20656;-85
2023/11/14 03:49:25;;;;;;;5.80;2.23;;;;;;;11.26;98.69;97568.88;4176528;28;20671;-85
2023/11/14 03:51:28;;;;;;;5.97;1.93;;;;;;;11.23;98.74;97576.97;4186337;28;20662;-84
2023/11/14 03:53:31;;;;;;;9.33;1.77;;;;;;;11.23;98.35;97581.34;4187076;28;20620;-85
2023/11/14 03:55:35;;;;;;;3.17;1.67;;;;;;;11.21;98.19;97593.69;4176601;28;20656;-84
2023/11/14 03:57:38;;;;;;;4.00;1.57;;;;;;;11.19;99.20;97599.03;4170405;28;20633;-85
2023/11/14 03:59:41;;;;;;;4.23;1.53;;;;;;;11.19;98.35;97588.59;4159750;28;20752;-85
2023/11/14 04:01:45;;;;;;;6.63;2.13;;;;;;;11.18;97.95;97579.09;4189378;28;20637;-84
2023/11/14 04:03:49;;;;;;;9.67;1.83;;;;;;;11.14;99.09;97589.88;4177639;28;20639;-84
2023/11/14 04:05:53;;;;;;;8.60;1.93;;;;;;;11.08;98.23;97601.66;4159983;28;20634;-85
2023/11/14 04:07:56;;;;;;;4.90;1.93;;;;;;;11.08;99.56;97600.81;4164486;28;21434;-85
2023/11/14 04:10:00;;;;;;;3.10;1.53;;;;;;;11.08;98.80;97609.47;4167832;28;20672;-84
2023/11/14 04:12:02;;;;;;;4.77;1.60;;;;;;;11.08;99.13;97593.81;4162277;28;20683;-85
2023/11/14 04:14:06;;;;;;;12.13;2.47;;;;;;;11.14;98.56;97595.09;4174753;28;20617;-84
2023/11/14 04:16:09;;;;;;;7.93;2.50;;;;;;;11.19;99.90;97600.81;4191116;28;20630;-84
2023/11/14 04:18:12;;;;;;;5.90;1.80;;;;;;;11.23;99.39;97592.63;4159592;28;20616;-85
2023/11/14 04:20:16;;;;;;;8.90;3.33;;;;;;;11.26;99.87;97586.31;4174489;28;20714;-85
2023/11/14 04:22:20;;;;;;;6.87;1.70;;;;;;;11.30;99.22;97597.22;4166743;28;20743;-85
2023/11/14 04:24:24;;;;;;;4.33;1.73;;;;;;;11.34;100.00;97587.38;4172323;28;20637;-85
2023/11/14 04:26:29;;;;;;;6.03;2.00;;;;;;;11.32;98.53;97605.78;4188292;28;20635;-84
2023/11/14 04:28:33;;;;;;;7.57;2.23;;;;;;;11.30;100.00;97599.00;4155505;28;20652;-85
2023/11/14 04:30:36;;;;;;;6.17;2.60;;;;;;;11.26;99.38;97610.66;4160511;28;20653;-84
2023/11/14 04:32:39;;;;;;;7.67;1.90;;;;;;;11.23;99.36;97605.66;4160430;28;20685;-85
2023/11/14 04:34:45;;;;;;;6.50;1.77;;;;;;;11.22;98.98;97616.25;4175345;28;20624;-85
2023/11/14 04:36:48;;;;;;;7.43;2.20;;;;;;;11.25;99.22;97613.38;4177110;28;20995;-84
2023/11/14 04:38:52;;;;;;;5.40;2.17;;;;;;;11.26;98.97;97602.81;4177041;28;20624;-84
2023/11/14 04:40:55;;;;;;;6.23;2.07;;;;;;;11.30;99.37;97606.84;4174567;28;20628;-85
2023/11/14 04:42:59;;;;;;;6.50;2.33;;;;;;;11.37;99.82;97600.19;4176296;28;20711;-86
2023/11/14 04:45:02;;;;;;;5.30;2.00;;;;;;;11.41;99.68;97599.81;4176782;28;21110;-85
2023/11/14 04:47:07;;;;;;;6.70;2.03;;;;;;;11.44;99.44;97604.81;4190558;28;20642;-84
2023/11/14 04:49:12;;;;;;;8.60;1.80;;;;;;;11.43;100.00;97594.47;4176117;28;20631;-85
2023/11/14 04:51:15;;;;;;;8.90;2.10;;;;;;;11.40;100.00;97611.22;4174959;28;20635;-85
2023/11/14 04:53:21;;;;;;;9.47;2.70;;;;;;;11.41;100.00;97618.09;4175525;28;20625;-84
2023/11/14 04:55:26;;;;;;;9.10;2.30;;;;;;;11.42;99.22;97624.97;4160582;28;20897;-85
2023/11/14 04:57:28;;;;;;;6.63;2.47;;;;;;;11.45;99.35;97613.44;4184519;28;20682;-85
2023/11/14 04:59:31;;;;;;;7.27;2.10;;;;;;;11.49;100.00;97622.75;4176068;28;21255;-84
2023/11/14 05:01:34;;;;;;;6.93;2.27;;;;;;;11.54;100.00;97617.97;4175022;28;20644;-85
2023/11/14 05:03:37;;;;;;;6.13;2.43;;;;;;;11.56;99.15;97614.31;4172752;28;21328;-86
2023/11/14 05:05:40;;;;;;;10.43;2.60;;;;;;;11.60;98.84;97620.09;4161329;28;20626;-85
2023/11/14 05:07:44;;;;;;;7.63;2.43;;;;;;;11.63;98.78;97630.31;4177599;28;21165;-85
2023/11/14 05:09:47;;;;;;;10.47;2.10;;;;;;;11.65;99.26;97633.63;4160951;28;20622;-85
2023/11/14 05:11:52;;;;;;;8.10;2.70;;;;;;;11.62;98.31;97634.72;4175003;28;20631;-85
2023/11/14 05:13:55;;;;;;;6.60;2.33;;;;;;;11.61;99.21;97647.91;4174856;28;20624;-85
2023/11/14 05:15:59;;;;;;;12.63;2.90;;;;;;;11.59;99.17;97649.78;4172182;28;20691;-85
2023/11/14 05:18:17;;;;;;;10.23;2.90;;;;;;;11.61;99.57;97643.50;4157385;28;20729;-85
2023/11/14 05:20:20;;;;;;;8.27;2.90;;;;;;;11.63;99.20;97646.81;4186972;28;20699;-85
2023/11/14 05:22:23;;;;;;;8.00;2.73;;;;;;;11.64;99.19;97631.97;4160667;28;20617;-84
2023/11/14 05:24:27;;;;;;;6.63;2.47;;;;;;;11.64;98.67;97634.59;4177510;28;21442;-84
2023/11/14 05:26:30;;;;;;;7.67;2.60;;;;;;;11.62;98.82;97629.50;4183537;28;21049;-85
2023/11/14 05:28:35;;;;;;;7.40;2.40;;;;;;;11.64;98.43;97634.59;4172450;28;21182;-85
2023/11/14 05:30:37;;;;;;;8.43;2.40;;;;;;;11.62;98.72;97632.09;4175550;28;20656;-85
2023/11/14 05:32:42;;;;;;;7.97;2.53;;;;;;;11.62;99.46;97629.50;4159732;28;20646;-85
2023/11/14 05:34:44;;;;;;;13.27;2.77;;;;;;;11.64;98.55;97642.44;4181625;28;21014;-85
2023/11/14 05:36:48;;;;;;;9.23;2.53;;;;;;;11.65;98.97;97642.31;4173960;28;21281;-85
2023/11/14 05:38:51;;;;;;;6.27;2.50;;;;;;;11.70;99.33;97653.22;4171208;28;20632;-84
2023/11/14 05:40:56;;;;;;;7.67;2.60;;;;;;;11.73;98.15;97647.75;4173017;28;21044;-85
2023/11/14 05:43:01;;;;;;;7.07;2.27;;;;;;;11.75;99.83;97651.88;4170519;28;20660;-84
2023/11/14 05:45:08;;;;;;;10.00;3.03;;;;;;;11.78;98.07;97656.03;4183989;28;20624;-85
2023/11/14 05:47:11;;;;;;;4.27;2.13;;;;;;;11.79;98.66;97668.97;4182927;28;20632;-85
2023/11/14 05:49:14;;;;;;;8.13;2.73;;;;;;;11.82;98.95;97670.53;4160817;28;20610;-85
2023/11/14 05:51:17;;;;;;;11.50;3.40;;;;;;;11.83;100.00;97664.31;4174630;28;21226;-84
2023/11/14 05:53:20;;;;;;;6.70;2.30;;;;;;;11.84;99.97;97661.59;4168698;28;20732;-85
2023/11/14 05:55:23;;;;;;;5.00;2.60;;;;;;;11.80;98.77;97660.19;4157938;28;20626;-84
2023/11/14 05:57:27;;;;;;;4.67;2.10;;;;;;;11.77;98.77;97663.06;4183190;28;20660;-84
2023/11/14 05:59:30;;;;;;;7.47;2.30;;;;;;;11.78;97.91;97662.06;4167150;28;20629;-84
2023/11/14 06:01:35;;;;;;;11.47;2.87;;;;;;;11.78;99.17;97656.84;4159809;28;20752;-84
2023/11/14 06:03:39;;;;;;;7.53;2.30;;;;;;;11.76;97.45;97657.94;4173898;28;20620;-85
2023/11/14 06:05:42;;;;;;;8.70;2.37;;;;;;;11.74;98.29;97659.84;4169158;28;20625;-85
2023/11/14 06:07:45;;;;;;;7.97;2.73;;;;;;;11.76;98.91;97658.75;4169792;28;20664;-85
2023/11/14 06:09:48;;;;;;;9.40;2.37;;;;;;;11.80;99.58;97660.19;4173738;28;20682;-85
2023/11/14 06:11:51;;;;;;;6.40;2.63;;;;;;;11.82;100.00;97676.56;4154303;28;20648;-84
2023/11/14 06:13:55;;;;;;;7.00;2.80;;;;;;;11.85;98.92;97670.28;4156120;28;20626;-84
2023/11/14 06:15:58;;;;;;;7.03;2.60;;;;;;;11.88;99.41;97670.84;4158262;28;20625;-84
2023/11/14 06:18:03;;;;;;;6.20;2.13;;;;;;;11.90;99.70;97673.34;4174446;28;20627;-84
2023/11/14 06:20:08;;;;;;;8.40;2.40;;;;;;;11.94;98.40;97659.09;4152704;28;20633;-84
2023/11/14 06:22:13;;;;;;;6.97;2.30;;;;;;;11.94;97.75;97665.13;4158022;28;20671;-86
2023/11/14 06:24:16;;;;;;;8.43;2.40;;;;;;;11.97;99.01;97657.03;4155428;28;20637;-85
2023/11/14 06:26:19;;;;;;;4.70;2.17;;;;;;;12.00;97.70;97659.41;4154966;28;21187;-84
2023/11/14 06:28:23;;;;;;;8.20;2.40;;;;;;;12.02;97.44;97661.91;4157870;28;20736;-85
2023/11/14 06:30:26;;;;;;;7.53;2.27;;;;;;;12.04;98.33;97665.22;4170960;28;20670;-85
2023/11/14 06:32:29;;;;;;;5.10;2.30;;;;;;;12.09;97.93;97671.75;4187685;28;21221;-85
2023/11/14 06:34:34;;;;;;;8.70;2.40;;;;;;;12.14;98.39;97668.75;4174031;28;20620;-85
2023/11/14 06:36:38;;;;;;;11.30;2.40;;;;;;;12.16;98.40;97672.88;4184942;28;21343;-85
2023/11/14 06:38:41;;;;;;;9.93;2.20;;;;;;;12.20;97.06;97681.34;4172896;28;21202;-86
2023/11/14 06:40:45;;;;;;;5.50;2.37;;;;;;;12.22;96.86;97677.63;4151685;28;21101;-85
2023/11/14 06:42:48;;;;;;;6.23;2.20;;;;;;;12.25;96.60;97682.59;4166416;28;20613;-85
2023/11/14 06:44:52;;;;;;;9.87;2.60;;;;;;;12.27;96.33;97688.56;4169961;28;20647;-85
2023/11/14 06:46:55;;;;;;;5.10;2.23;;;;;;;12.28;96.84;97698.88;4154248;28;20737;-85
2023/11/14 06:48:58;;;;;;;7.37;2.20;;;;;;;12.31;96.30;97703.88;4183338;28;20628;-85
2023/11/14 06:51:05;;;;;;;7.30;2.33;;;;;;;12.35;96.49;97707.06;4154711;28;20629;-86
2023/11/14 06:53:08;;;;;;;7.80;2.40;;;;;;;12.37;97.13;97703.38;4174682;28;20615;-84
2023/11/14 06:55:11;;;;;;;8.23;2.70;;;;;;;12.40;95.66;97692.66;4156977;28;21003;-85
2023/11/14 06:57:15;;;;;;;4.80;1.80;;;;;;;12.43;97.06;97696.78;4180477;28;20620;-84
2023/11/14 06:59:18;;;;;;;6.03;2.33;;;;;;;12.44;97.15;97693.22;4168302;28;20674;-83
2023/11/14 07:01:21;;;;;;;6.47;2.37;;;;;;;12.43;96.03;97689.78;4165811;28;20688;-83
2023/11/14 07:03:25;;;;;;;7.20;2.50;;;;;;;12.45;95.99;97710.59;4172414;28;21127;-83
2023/11/14 07:05:28;;;;;;;13.47;4.53;;;;;;;12.49;96.61;97711.97;4174964;28;20656;-84
2023/11/14 07:07:33;;;;;;;6.67;2.20;;;;;;;12.53;97.06;97719.44;4184891;28;20731;-84
2023/11/14 07:09:36;;;;;;;8.13;2.20;;;;;;;12.55;96.30;97714.91;4174284;28;20631;-83
2023/11/14 07:11:39;;;;;;;6.43;2.00;;;;;;;12.58;95.98;97713.84;4167718;28;21247;-83
2023/11/14 07:13:43;;;;;;;11.43;2.53;;;;;;;12.61;96.92;97717.03;4154438;28;20645;-84
2023/11/14 07:15:47;;;;;;;9.83;2.23;;;;;;;12.64;96.73;97732.47;4173595;28;20609;-84
2023/11/14 07:17:51;;;;;;;7.60;2.17;;;;;;;12.66;96.92;97745.44;4159284;28;20621;-84
2023/11/14 07:19:54;;;;;;;8.00;2.40;;;;;;;12.68;95.74;97739.94;4159288;28;20653;-83
2023/11/14 07:21:58;;;;;;;6.13;2.10;;;;;;;12.70;96.54;97740.69;4171016;28;20664;-84
2023/11/14 07:24:02;;;;;;;7.30;2.63;;;;;;;12.74;95.48;97749.09;4183361;28;20636;-84
2023/11/14 07:26:10;;;;;;;8.53;3.27;;;;;;;12.75;96.23;97753.38;4181724;28;20626;-85
2023/11/14 07:28:14;;;;;;;7.20;2.53;;;;;;;12.78;96.40;97742.66;4155827;28;20626;-84
2023/11/14 07:30:17;;;;;;;8.17;2.43;;;;;;;12.75;96.21;97735.88;4173876;28;20626;-84
2023/11/14 07:32:21;;;;;;;13.00;2.63;;;;;;;12.78;95.99;97740.03;4183554;28;21040;-84
2023/11/14 07:34:25;;;;;;;10.30;2.90;;;;;;;12.82;95.95;97744.03;4170619;28;20728;-84
2023/11/14 07:36:28;;;;;;;6.50;2.43;;;;;;;12.84;96.91;97737.78;4171236;28;20636;-84
2023/11/14 07:38:31;;;;;;;6.47;2.70;;;;;;;12.86;95.95;97732.41;4150713;28;20668;-84
2023/11/14 07:40:36;;;;;;;6.47;2.60;;;;;;;12.89;95.85;97725.13;4168906;28;20624;-84
2023/11/14 07:42:38;;;;;;;12.87;6.40;;;;;;;12.89;96.44;97712.03;4171321;28;20757;-84
2023/11/14 07:44:42;;;;;;;8.73;4.33;;;;;;;12.88;95.86;97709.53;4175971;28;20624;-84
2023/11/14 07:46:46;;;;;;;8.80;3.73;;;;;;;12.80;95.10;97710.16;4183677;28;20623;-85
2023/11/14 07:48:48;;;;;;;7.20;3.00;;;;;;;12.76;95.03;97703.53;4187631;28;21047;-86
2023/11/14 07:50:51;;;;;;;11.17;3.47;;;;;;;12.76;94.85;97716.63;4184737;28;20692;-87
2023/11/14 07:52:58;;;;;;;11.10;2.90;;;;;;;12.79;96.07;97724.22;4168730;28;20639;-87
2023/11/14 07:55:03;;;;;;;12.77;3.20;;;;;;;12.82;96.20;97729.22;4171542;28;20997;-87
2023/11/14 07:57:08;;;;;;;11.70;3.73;;;;;;;12.83;97.63;97746.56;4152421;28;20623;-86
2023/11/14 07:59:12;;;;;;;9.43;3.17;;;;;;;12.83;97.57;97767.50;4167320;28;20649;-86
2023/11/14 08:01:15;;;;;;;9.87;2.70;;;;;;;12.80;96.03;97772.97;4166104;28;20947;-87
2023/11/14 08:03:18;;;;;;;8.43;2.60;;;;;;;12.82;96.92;97772.84;4167124;28;21144;-86
2023/11/14 08:05:21;;;;;;;10.07;2.83;;;;;;;12.82;95.85;97759.75;4156025;28;21326;-86
2023/11/14 08:07:24;;;;;;;6.63;2.20;;;;;;;12.86;96.79;97754.16;4174023;28;20618;-88
2023/11/14 08:09:29;;;;;;;7.50;2.67;;;;;;;12.90;95.53;97739.88;4167576;28;20710;-88
2023/11/14 08:11:32;;;;;;;7.50;2.30;;;;;;;12.92;95.79;97742.38;4184854;28;20621;-86
2023/11/14 08:13:37;;;;;;;9.33;3.50;;;;;;;12.97;95.49;97741.00;4156924;28;20681;-86
2023/11/14 08:15:42;;;;;;;9.40;3.03;;;;;;;13.02;95.81;97744.09;4172008;28;21209;-86
2023/11/14 08:17:45;;;;;;;7.23;2.70;;;;;;;13.04;94.35;97751.81;4158028;28;20645;-86
2023/11/14 08:19:49;;;;;;;7.07;2.73;;;;;;;13.09;94.50;97765.34;4154827;28;20723;-86
2023/11/14 08:21:53;;;;;;;6.67;2.47;;;;;;;13.08;94.38;97766.31;4173268;28;20746;-86
2023/11/14 08:23:56;;;;;;;10.63;2.80;;;;;;;13.08;94.64;97780.25;4172853;28;20708;-86
2023/11/14 08:25:59;;;;;;;4.60;2.37;;;;;;;13.04;93.84;97793.72;4155446;28;20622;-86
2023/11/14 08:28:04;;;;;;;6.73;2.27;;;;;;;12.99;94.46;97781.00;4188785;28;20623;-87
2023/11/14 08:30:10;;;;;;;5.23;2.37;;;;;;;12.94;93.79;97780.53;4189324;28;20711;-87
2023/11/14 08:32:15;;;;;;;5.27;2.00;;;;;;;12.93;94.65;97797.22;4172575;28;20640;-86
2023/11/14 08:34:19;;;;;;;5.23;2.27;;;;;;;12.86;94.53;97801.28;4172851;28;20984;-86
2023/11/14 08:36:22;;;;;;;8.50;2.90;;;;;;;12.82;94.68;97793.78;4157092;28;21253;-86
2023/11/14 08:38:27;;;;;;;3.20;1.60;;;;;;;12.76;94.75;97795.13;4174706;28;20717;-86
2023/11/14 08:40:30;;;;;;;6.00;2.20;;;;;;;12.65;96.37;97776.00;4178776;28;20624;-86
2023/11/14 08:42:34;;;;;;;5.10;1.90;;;;;;;12.64;96.81;97783.97;4176160;28;21362;-87
2023/11/14 08:44:38;;;;;;;8.43;2.00;;;;;;;12.63;96.62;97780.53;4162309;28;20672;-86
2023/11/14 08:46:43;;;;;;;4.87;1.87;;;;;;;12.60;95.94;97772.09;4178173;28;20624;-87
2023/11/14 08:48:46;;;;;;;8.10;1.83;;;;;;;12.57;97.03;97759.25;4178749;28;20729;-86
2023/11/14 08:50:49;;;;;;;4.90;1.83;;;;;;;12.62;95.40;97760.56;4165858;28;20652;-86
2023/11/14 08:52:56;;;;;;;3.77;1.63;;;;;;;12.71;96.36;97738.88;4184990;28;20627;-87
2023/11/14 08:54:59;;;;;;;5.90;2.07;;;;;;;12.80;95.89;97738.94;4176856;28;20667;-87
2023/11/14 08:57:03;;;;;;;3.50;1.60;;;;;;;12.81;95.63;97730.13;4187143;28;20619;-86
2023/11/14 08:59:07;;;;;;;3.37;1.40;;;;;;;12.91;95.14;97735.47;4154730;28;20621;-86
2023/11/14 09:01:14;;;;;;;3.90;1.57;;;;;;;12.90;94.60;97737.25;4175444;28;21202;-87
2023/11/14 09:03:19;;;;;;;6.40;2.60;;;;;;;12.88;93.94;97726.06;4186067;28;20660;-87
2023/11/14 09:05:22;;;;;;;8.60;3.40;;;;;;;12.88;94.78;97735.72;4161978;28;20725;-87
2023/11/14 09:07:25;;;;;;;6.07;2.20;;;;;;;12.86;94.18;97745.50;4177426;28;20678;-87
2023/11/14 09:09:28;;;;;;;3.77;1.70;;;;;;;12.85;94.45;97749.91;4158630;28;20638;-87
2023/11/14 09:11:31;;;;;;;3.83;1.53;;;;;;;12.83;94.64;97754.44;4172755;28;20644;-88
2023/11/14 09:13:37;;;;;;;2.53;1.40;;;;;;;12.82;93.64;97773.72;4171559;28;20660;-87
2023/11/14 09:15:41;;;;;;;4.30;1.60;;;;;;;12.79;93.78;97753.00;4166521;28;20640;-87
2023/11/14 09:17:44;;;;;;;3.20;1.40;;;;;;;12.79;94.21;97746.91;4158171;28;20614;-87
2023/11/14 09:19:56;;;;;;;3.77;1.50;;;;;;;12.70;94.49;97747.66;4155385;28;20656;-86
2023/11/14 09:22:00;;;;;;;2.70;1.10;;;;;;;12.71;94.62;97742.31;4172121;28;20675;-87
2023/11/14 09:24:04;;;;;;;2.73;1.57;;;;;;;12.72;93.89;97741.38;4174577;28;21489;-87
2023/11/14 09:26:09;;;;;;;3.13;1.13;;;;;;;12.76;94.71;97731.47;4157220;28;21700;-87
2023/11/14 09:28:13;;;;;;;4.60;1.63;;;;;;;12.77;95.41;97733.97;4182532;28;20625;-87
2023/11/14 09:30:16;;;;;;;4.90;1.30;;;;;;;12.79;95.37;97729.44;4187016;28;20625;-87
2023/11/14 09:32:22;;;;;;;3.03;1.30;;;;;;;12.79;94.18;97715.50;4173918;28;20683;-87
2023/11/14 09:34:26;;;;;;;2.80;1.20;;;;;;;12.80;93.63;97714.56;4161809;28;20626;-87
2023/11/14 09:36:30;;;;;;;2.07;1.00;;;;;;;12.80;91.86;97723.25;4174192;28;21401;-87
2023/11/14 09:38:34;;;;;;;3.80;1.27;;;;;;;12.75;93.68;97746.34;4179219;28;20682;-86
2023/11/14 09:40:37;;;;;;;4.63;1.33;;;;;;;12.74;94.18;97741.25;4176930;28;20632;-87
2023/11/14 09:42:40;;;;;;;2.63;1.50;;;;;;;12.82;94.10;97749.28;4193883;28;20692;-86